sensor_id;sensor_type;location;lat;lon;timestamp;temperature;humidity
21807;DHT22;11065;50.786;7.840;2023-12-04T00:00:15;4.30;48.90
21807;DHT22;11065;50.786;7.840;2023-12-04T00:02:43;4.20;48.90
21807;DHT22;11065;50.786;7.840;2023-12-04T00:05:11;4.20;48.90
21807;DHT22;11065;50.786;7.840;2023-12-04T00:07:40;4.20;49.00
21807;DHT22;11065;50.786;7.840;2023-12-04T00:10:08;4.20;49.00
21807;DHT22;11065;50.786;7.840;2023-12-04T00:12:36;4.20;49.00
21807;DHT22;11065;50.786;7.840;2023-12-04T00:15:05;4.20;49.00
21807;DHT22;11065;50.786;7.840;2023-12-04T00:17:33;4.20;49.00
21807;DHT22;11065;50.786;7.840;2023-12-04T00:20:07;4.20;49.00
21807;DHT22;11065;50.786;7.840;2023-12-04T00:22:36;4.20;49.00
21807;DHT22;11065;50.786;7.840;2023-12-04T00:25:06;4.20;49.00
21807;DHT22;11065;50.786;7.840;2023-12-04T00:27:34;4.10;49.00
21807;DHT22;11065;50.786;7.840;2023-12-04T00:30:02;4.10;48.90
21807;DHT22;11065;50.786;7.840;2023-12-04T00:32:31;4.10;48.90
21807;DHT22;11065;50.786;7.840;2023-12-04T00:34:59;4.10;49.00
21807;DHT22;11065;50.786;7.840;2023-12-04T00:37:27;4.10;49.00
21807;DHT22;11065;50.786;7.840;2023-12-04T00:39:55;4.00;49.00
21807;DHT22;11065;50.786;7.840;2023-12-04T00:42:25;4.00;49.00
21807;DHT22;11065;50.786;7.840;2023-12-04T00:44:53;4.00;49.10
21807;DHT22;11065;50.786;7.840;2023-12-04T00:47:21;4.00;49.00
21807;DHT22;11065;50.786;7.840;2023-12-04T00:49:49;4.00;49.00
21807;DHT22;11065;50.786;7.840;2023-12-04T00:52:16;4.10;49.00
21807;DHT22;11065;50.786;7.840;2023-12-04T00:54:44;4.00;48.80
21807;DHT22;11065;50.786;7.840;2023-12-04T00:57:12;4.00;48.80
21807;DHT22;11065;50.786;7.840;2023-12-04T00:59:42;4.00;49.20
21807;DHT22;11065;50.786;7.840;2023-12-04T01:02:10;4.00;48.70
21807;DHT22;11065;50.786;7.840;2023-12-04T01:04:40;4.00;48.60
21807;DHT22;11065;50.786;7.840;2023-12-04T01:07:08;4.00;48.70
21807;DHT22;11065;50.786;7.840;2023-12-04T01:09:36;4.00;48.70
21807;DHT22;11065;50.786;7.840;2023-12-04T01:12:04;3.90;48.70
21807;DHT22;11065;50.786;7.840;2023-12-04T01:14:32;3.90;48.70
21807;DHT22;11065;50.786;7.840;2023-12-04T01:17:02;3.90;48.70
21807;DHT22;11065;50.786;7.840;2023-12-04T01:19:30;3.90;48.70
21807;DHT22;11065;50.786;7.840;2023-12-04T01:21:57;3.90;48.70
21807;DHT22;11065;50.786;7.840;2023-12-04T01:24:26;3.80;48.70
21807;DHT22;11065;50.786;7.840;2023-12-04T01:26:54;3.80;48.60
21807;DHT22;11065;50.786;7.840;2023-12-04T01:29:22;3.80;48.60
21807;DHT22;11065;50.786;7.840;2023-12-04T01:31:50;3.80;48.60
21807;DHT22;11065;50.786;7.840;2023-12-04T01:34:19;3.80;48.60
21807;DHT22;11065;50.786;7.840;2023-12-04T01:36:47;3.80;48.60
21807;DHT22;11065;50.786;7.840;2023-12-04T01:39:15;3.80;48.70
21807;DHT22;11065;50.786;7.840;2023-12-04T01:41:43;3.80;48.70
21807;DHT22;11065;50.786;7.840;2023-12-04T01:44:11;3.80;48.70
21807;DHT22;11065;50.786;7.840;2023-12-04T01:46:39;3.80;48.70
21807;DHT22;11065;50.786;7.840;2023-12-04T01:49:07;3.80;48.70
21807;DHT22;11065;50.786;7.840;2023-12-04T01:51:37;3.80;48.80
21807;DHT22;11065;50.786;7.840;2023-12-04T01:54:06;3.80;48.90
21807;DHT22;11065;50.786;7.840;2023-12-04T01:56:34;3.80;48.80
21807;DHT22;11065;50.786;7.840;2023-12-04T01:59:03;3.80;48.80
21807;DHT22;11065;50.786;7.840;2023-12-04T02:01:32;3.80;48.80
21807;DHT22;11065;50.786;7.840;2023-12-04T02:04:01;3.90;48.80
21807;DHT22;11065;50.786;7.840;2023-12-04T02:06:30;4.00;48.90
21807;DHT22;11065;50.786;7.840;2023-12-04T02:09:00;3.90;48.70
21807;DHT22;11065;50.786;7.840;2023-12-04T02:11:29;3.90;48.70
21807;DHT22;11065;50.786;7.840;2023-12-04T02:13:57;4.00;48.80
21807;DHT22;11065;50.786;7.840;2023-12-04T02:16:26;4.00;49.20
21807;DHT22;11065;50.786;7.840;2023-12-04T02:18:55;4.00;48.70
21807;DHT22;11065;50.786;7.840;2023-12-04T02:21:23;4.00;48.70
21807;DHT22;11065;50.786;7.840;2023-12-04T02:23:53;4.00;48.60
21807;DHT22;11065;50.786;7.840;2023-12-04T02:26:24;4.10;48.60
21807;DHT22;11065;50.786;7.840;2023-12-04T02:28:56;4.10;49.00
21807;DHT22;11065;50.786;7.840;2023-12-04T02:31:27;4.10;48.50
21807;DHT22;11065;50.786;7.840;2023-12-04T02:33:59;4.10;48.50
21807;DHT22;11065;50.786;7.840;2023-12-04T02:36:29;4.10;48.50
21807;DHT22;11065;50.786;7.840;2023-12-04T02:39:00;4.10;48.50
21807;DHT22;11065;50.786;7.840;2023-12-04T02:41:28;4.10;48.50
21807;DHT22;11065;50.786;7.840;2023-12-04T02:43:56;4.10;48.50
21807;DHT22;11065;50.786;7.840;2023-12-04T02:46:24;4.10;48.50
21807;DHT22;11065;50.786;7.840;2023-12-04T02:48:52;4.10;48.50
21807;DHT22;11065;50.786;7.840;2023-12-04T02:51:20;4.20;48.50
21807;DHT22;11065;50.786;7.840;2023-12-04T02:53:48;4.10;48.40
21807;DHT22;11065;50.786;7.840;2023-12-04T02:56:17;4.20;48.50
21807;DHT22;11065;50.786;7.840;2023-12-04T02:58:45;4.20;48.40
21807;DHT22;11065;50.786;7.840;2023-12-04T03:01:13;4.10;48.30
21807;DHT22;11065;50.786;7.840;2023-12-04T03:03:40;4.10;48.30
21807;DHT22;11065;50.786;7.840;2023-12-04T03:06:09;4.10;48.30
21807;DHT22;11065;50.786;7.840;2023-12-04T03:08:37;4.10;48.20
21807;DHT22;11065;50.786;7.840;2023-12-04T03:11:05;4.10;48.20
21807;DHT22;11065;50.786;7.840;2023-12-04T03:13:34;4.10;48.20
21807;DHT22;11065;50.786;7.840;2023-12-04T03:16:03;4.10;48.20
21807;DHT22;11065;50.786;7.840;2023-12-04T03:18:31;4.10;48.20
21807;DHT22;11065;50.786;7.840;2023-12-04T03:20:59;4.00;48.10
21807;DHT22;11065;50.786;7.840;2023-12-04T03:23:27;4.10;48.20
21807;DHT22;11065;50.786;7.840;2023-12-04T03:25:55;4.10;48.10
21807;DHT22;11065;50.786;7.840;2023-12-04T03:28:23;4.00;48.10
21807;DHT22;11065;50.786;7.840;2023-12-04T03:30:53;4.00;48.10
21807;DHT22;11065;50.786;7.840;2023-12-04T03:33:21;4.00;48.10
21807;DHT22;11065;50.786;7.840;2023-12-04T03:35:49;4.00;48.20
21807;DHT22;11065;50.786;7.840;2023-12-04T03:38:16;4.00;48.20
21807;DHT22;11065;50.786;7.840;2023-12-04T03:40:44;4.00;48.20
21807;DHT22;11065;50.786;7.840;2023-12-04T03:43:12;3.90;48.20
21807;DHT22;11065;50.786;7.840;2023-12-04T03:45:40;3.90;48.20
21807;DHT22;11065;50.786;7.840;2023-12-04T03:48:09;3.90;48.20
21807;DHT22;11065;50.786;7.840;2023-12-04T03:50:38;3.90;48.20
21807;DHT22;11065;50.786;7.840;2023-12-04T03:53:06;3.90;48.30
21807;DHT22;11065;50.786;7.840;2023-12-04T03:55:34;3.90;48.30
21807;DHT22;11065;50.786;7.840;2023-12-04T03:58:03;3.80;48.20
21807;DHT22;11065;50.786;7.840;2023-12-04T04:00:31;3.80;48.20
21807;DHT22;11065;50.786;7.840;2023-12-04T04:02:59;3.80;48.30
21807;DHT22;11065;50.786;7.840;2023-12-04T04:05:28;3.70;48.30
21807;DHT22;11065;50.786;7.840;2023-12-04T04:07:56;3.70;48.30
21807;DHT22;11065;50.786;7.840;2023-12-04T04:10:24;3.70;48.30
21807;DHT22;11065;50.786;7.840;2023-12-04T04:12:52;3.70;48.40
21807;DHT22;11065;50.786;7.840;2023-12-04T04:15:20;3.70;48.50
21807;DHT22;11065;50.786;7.840;2023-12-04T04:17:47;3.70;48.40
21807;DHT22;11065;50.786;7.840;2023-12-04T04:20:16;3.70;48.40
21807;DHT22;11065;50.786;7.840;2023-12-04T04:22:47;3.60;48.40
21807;DHT22;11065;50.786;7.840;2023-12-04T04:25:15;3.60;48.40
21807;DHT22;11065;50.786;7.840;2023-12-04T04:27:43;3.60;48.40
21807;DHT22;11065;50.786;7.840;2023-12-04T04:30:12;3.60;48.30
21807;DHT22;11065;50.786;7.840;2023-12-04T04:32:41;3.60;48.40
21807;DHT22;11065;50.786;7.840;2023-12-04T04:35:09;3.60;48.40
21807;DHT22;11065;50.786;7.840;2023-12-04T04:37:37;3.60;48.30
21807;DHT22;11065;50.786;7.840;2023-12-04T04:40:10;3.60;48.40
21807;DHT22;11065;50.786;7.840;2023-12-04T04:42:38;3.60;48.40
21807;DHT22;11065;50.786;7.840;2023-12-04T04:45:07;3.60;48.40
21807;DHT22;11065;50.786;7.840;2023-12-04T04:47:35;3.70;48.40
21807;DHT22;11065;50.786;7.840;2023-12-04T04:50:03;3.70;48.40
21807;DHT22;11065;50.786;7.840;2023-12-04T04:52:31;3.70;48.30
21807;DHT22;11065;50.786;7.840;2023-12-04T04:54:59;3.70;48.40
21807;DHT22;11065;50.786;7.840;2023-12-04T04:57:29;3.70;48.30
21807;DHT22;11065;50.786;7.840;2023-12-04T04:59:57;3.70;48.30
21807;DHT22;11065;50.786;7.840;2023-12-04T05:02:26;3.70;48.30
21807;DHT22;11065;50.786;7.840;2023-12-04T05:04:54;3.60;48.20
21807;DHT22;11065;50.786;7.840;2023-12-04T05:07:22;3.70;48.20
21807;DHT22;11065;50.786;7.840;2023-12-04T05:09:49;3.60;48.20
21807;DHT22;11065;50.786;7.840;2023-12-04T05:12:17;3.60;48.20
21807;DHT22;11065;50.786;7.840;2023-12-04T05:14:47;3.60;48.20
21807;DHT22;11065;50.786;7.840;2023-12-04T05:17:14;3.60;48.20
21807;DHT22;11065;50.786;7.840;2023-12-04T05:19:42;3.60;48.20
21807;DHT22;11065;50.786;7.840;2023-12-04T05:22:10;3.60;48.30
21807;DHT22;11065;50.786;7.840;2023-12-04T05:24:38;3.60;48.30
21807;DHT22;11065;50.786;7.840;2023-12-04T05:27:06;3.60;48.20
21807;DHT22;11065;50.786;7.840;2023-12-04T05:29:34;3.60;48.20
21807;DHT22;11065;50.786;7.840;2023-12-04T05:32:04;3.60;48.20
21807;DHT22;11065;50.786;7.840;2023-12-04T05:34:32;3.60;48.30
21807;DHT22;11065;50.786;7.840;2023-12-04T05:37:00;3.60;48.30
21807;DHT22;11065;50.786;7.840;2023-12-04T05:39:28;3.60;48.30
21807;DHT22;11065;50.786;7.840;2023-12-04T05:41:56;3.60;48.30
21807;DHT22;11065;50.786;7.840;2023-12-04T05:44:24;3.60;48.30
21807;DHT22;11065;50.786;7.840;2023-12-04T05:46:52;3.60;48.70
21807;DHT22;11065;50.786;7.840;2023-12-04T05:49:21;3.60;48.70
21807;DHT22;11065;50.786;7.840;2023-12-04T05:51:49;3.60;48.20
21807;DHT22;11065;50.786;7.840;2023-12-04T05:54:17;3.50;48.20
21807;DHT22;11065;50.786;7.840;2023-12-04T05:56:45;3.50;48.10
21807;DHT22;11065;50.786;7.840;2023-12-04T05:59:13;3.50;48.20
21807;DHT22;11065;50.786;7.840;2023-12-04T06:01:41;3.50;48.10
21807;DHT22;11065;50.786;7.840;2023-12-04T06:04:09;3.40;48.10
21807;DHT22;11065;50.786;7.840;2023-12-04T06:06:38;3.40;48.10
21807;DHT22;11065;50.786;7.840;2023-12-04T06:09:06;3.40;48.10
21807;DHT22;11065;50.786;7.840;2023-12-04T06:11:34;3.30;48.10
21807;DHT22;11065;50.786;7.840;2023-12-04T06:14:02;3.30;48.20
21807;DHT22;11065;50.786;7.840;2023-12-04T06:16:30;3.30;48.20
21807;DHT22;11065;50.786;7.840;2023-12-04T06:18:58;3.30;48.20
21807;DHT22;11065;50.786;7.840;2023-12-04T06:21:26;3.20;48.20
21807;DHT22;11065;50.786;7.840;2023-12-04T06:23:55;3.20;48.30
21807;DHT22;11065;50.786;7.840;2023-12-04T06:26:24;3.20;48.30
21807;DHT22;11065;50.786;7.840;2023-12-04T06:28:52;3.20;48.40
21807;DHT22;11065;50.786;7.840;2023-12-04T06:31:21;3.10;48.40
21807;DHT22;11065;50.786;7.840;2023-12-04T06:33:50;3.10;48.40
21807;DHT22;11065;50.786;7.840;2023-12-04T06:36:18;3.10;48.50
21807;DHT22;11065;50.786;7.840;2023-12-04T06:38:47;3.10;48.50
21807;DHT22;11065;50.786;7.840;2023-12-04T06:41:18;3.10;48.60
21807;DHT22;11065;50.786;7.840;2023-12-04T06:43:48;3.00;48.60
21807;DHT22;11065;50.786;7.840;2023-12-04T06:46:21;3.00;48.60
21807;DHT22;11065;50.786;7.840;2023-12-04T06:48:53;3.00;48.70
21807;DHT22;11065;50.786;7.840;2023-12-04T06:51:22;3.00;48.70
21807;DHT22;11065;50.786;7.840;2023-12-04T06:53:50;3.00;48.70
21807;DHT22;11065;50.786;7.840;2023-12-04T06:56:20;3.00;48.70
21807;DHT22;11065;50.786;7.840;2023-12-04T06:58:47;3.00;48.70
21807;DHT22;11065;50.786;7.840;2023-12-04T07:01:15;3.00;48.70
21807;DHT22;11065;50.786;7.840;2023-12-04T07:03:43;3.00;48.70
21807;DHT22;11065;50.786;7.840;2023-12-04T07:06:12;3.00;48.70
21807;DHT22;11065;50.786;7.840;2023-12-04T07:08:41;3.00;48.60
21807;DHT22;11065;50.786;7.840;2023-12-04T07:11:09;2.90;48.60
21807;DHT22;11065;50.786;7.840;2023-12-04T07:13:40;2.90;48.60
21807;DHT22;11065;50.786;7.840;2023-12-04T07:16:09;2.90;48.60
21807;DHT22;11065;50.786;7.840;2023-12-04T07:18:37;3.00;48.70
21807;DHT22;11065;50.786;7.840;2023-12-04T07:21:05;2.90;48.70
21807;DHT22;11065;50.786;7.840;2023-12-04T07:23:33;2.90;48.70
21807;DHT22;11065;50.786;7.840;2023-12-04T07:26:02;2.90;48.70
21807;DHT22;11065;50.786;7.840;2023-12-04T07:28:30;2.90;48.70
21807;DHT22;11065;50.786;7.840;2023-12-04T07:30:59;2.90;48.80
21807;DHT22;11065;50.786;7.840;2023-12-04T07:33:28;2.90;48.90
21807;DHT22;11065;50.786;7.840;2023-12-04T07:35:56;2.90;48.80
21807;DHT22;11065;50.786;7.840;2023-12-04T07:38:24;2.90;48.90
21807;DHT22;11065;50.786;7.840;2023-12-04T07:40:55;2.90;48.90
21807;DHT22;11065;50.786;7.840;2023-12-04T07:43:23;2.90;48.90
21807;DHT22;11065;50.786;7.840;2023-12-04T07:45:51;2.90;49.00
21807;DHT22;11065;50.786;7.840;2023-12-04T07:48:20;2.90;49.00
21807;DHT22;11065;50.786;7.840;2023-12-04T07:50:48;3.00;49.20
21807;DHT22;11065;50.786;7.840;2023-12-04T07:53:16;3.00;49.20
21807;DHT22;11065;50.786;7.840;2023-12-04T07:55:45;3.00;49.60
21807;DHT22;11065;50.786;7.840;2023-12-04T07:58:14;3.00;49.00
21807;DHT22;11065;50.786;7.840;2023-12-04T08:00:43;3.10;49.00
21807;DHT22;11065;50.786;7.840;2023-12-04T08:03:12;3.10;49.30
21807;DHT22;11065;50.786;7.840;2023-12-04T08:05:41;3.20;49.30
21807;DHT22;11065;50.786;7.840;2023-12-04T08:08:09;3.20;48.70
21807;DHT22;11065;50.786;7.840;2023-12-04T08:10:37;3.20;48.60
21807;DHT22;11065;50.786;7.840;2023-12-04T08:13:05;3.20;48.60
21807;DHT22;11065;50.786;7.840;2023-12-04T08:15:33;3.30;48.70
21807;DHT22;11065;50.786;7.840;2023-12-04T08:18:01;3.30;48.70
21807;DHT22;11065;50.786;7.840;2023-12-04T08:20:29;3.30;48.70
21807;DHT22;11065;50.786;7.840;2023-12-04T08:23:07;3.40;48.90
21807;DHT22;11065;50.786;7.840;2023-12-04T08:25:35;3.40;48.80
21807;DHT22;11065;50.786;7.840;2023-12-04T08:28:05;3.50;48.80
21807;DHT22;11065;50.786;7.840;2023-12-04T08:30:35;3.60;48.70
21807;DHT22;11065;50.786;7.840;2023-12-04T08:33:03;3.70;48.60
21807;DHT22;11065;50.786;7.840;2023-12-04T08:35:32;3.60;48.60
21807;DHT22;11065;50.786;7.840;2023-12-04T08:37:59;3.70;48.60
21807;DHT22;11065;50.786;7.840;2023-12-04T08:40:29;3.70;48.50
21807;DHT22;11065;50.786;7.840;2023-12-04T08:42:57;3.70;48.40
21807;DHT22;11065;50.786;7.840;2023-12-04T08:45:25;3.80;48.30
21807;DHT22;11065;50.786;7.840;2023-12-04T08:47:53;3.80;48.30
21807;DHT22;11065;50.786;7.840;2023-12-04T08:50:21;3.90;48.30
21807;DHT22;11065;50.786;7.840;2023-12-04T08:52:49;3.90;48.30
21807;DHT22;11065;50.786;7.840;2023-12-04T08:55:17;3.90;48.20
21807;DHT22;11065;50.786;7.840;2023-12-04T08:57:47;3.90;48.20
21807;DHT22;11065;50.786;7.840;2023-12-04T09:00:15;4.00;48.20
21807;DHT22;11065;50.786;7.840;2023-12-04T09:02:43;4.00;48.10
21807;DHT22;11065;50.786;7.840;2023-12-04T09:05:20;4.10;48.00
21807;DHT22;11065;50.786;7.840;2023-12-04T09:07:48;4.10;48.10
21807;DHT22;11065;50.786;7.840;2023-12-04T09:10:36;4.10;48.00
21807;DHT22;11065;50.786;7.840;2023-12-04T09:13:25;4.10;48.00
21807;DHT22;11065;50.786;7.840;2023-12-04T09:15:53;4.20;48.00
21807;DHT22;11065;50.786;7.840;2023-12-04T09:18:21;4.10;47.90
21807;DHT22;11065;50.786;7.840;2023-12-04T09:20:49;4.20;48.00
21807;DHT22;11065;50.786;7.840;2023-12-04T09:23:16;4.10;47.90
21807;DHT22;11065;50.786;7.840;2023-12-04T09:25:44;4.10;47.80
21807;DHT22;11065;50.786;7.840;2023-12-04T09:28:13;4.10;47.90
21807;DHT22;11065;50.786;7.840;2023-12-04T09:30:42;4.20;47.90
21807;DHT22;11065;50.786;7.840;2023-12-04T09:33:10;4.20;47.90
21807;DHT22;11065;50.786;7.840;2023-12-04T09:35:38;4.20;47.90
21807;DHT22;11065;50.786;7.840;2023-12-04T09:38:06;4.20;47.90
21807;DHT22;11065;50.786;7.840;2023-12-04T09:40:34;4.20;47.90
21807;DHT22;11065;50.786;7.840;2023-12-04T09:43:03;4.30;48.00
21807;DHT22;11065;50.786;7.840;2023-12-04T09:45:32;4.30;48.00
21807;DHT22;11065;50.786;7.840;2023-12-04T09:48:01;4.30;47.90
21807;DHT22;11065;50.786;7.840;2023-12-04T09:50:30;4.40;48.00
21807;DHT22;11065;50.786;7.840;2023-12-04T09:53:00;4.40;47.90
21807;DHT22;11065;50.786;7.840;2023-12-04T09:55:28;4.50;47.90
21807;DHT22;11065;50.786;7.840;2023-12-04T09:57:58;4.50;47.80
21807;DHT22;11065;50.786;7.840;2023-12-04T10:00:27;4.50;47.90
21807;DHT22;11065;50.786;7.840;2023-12-04T10:02:55;4.60;47.90
21807;DHT22;11065;50.786;7.840;2023-12-04T10:05:25;4.60;47.90
21807;DHT22;11065;50.786;7.840;2023-12-04T10:07:53;4.70;47.90
21807;DHT22;11065;50.786;7.840;2023-12-04T10:10:20;4.70;48.30
21807;DHT22;11065;50.786;7.840;2023-12-04T10:12:48;4.70;47.90
21807;DHT22;11065;50.786;7.840;2023-12-04T10:15:16;4.80;47.90
21807;DHT22;11065;50.786;7.840;2023-12-04T10:17:44;4.90;47.90
21807;DHT22;11065;50.786;7.840;2023-12-04T10:20:14;4.90;47.90
21807;DHT22;11065;50.786;7.840;2023-12-04T10:22:56;5.00;47.90
21807;DHT22;11065;50.786;7.840;2023-12-04T10:25:25;5.00;47.80
21807;DHT22;11065;50.786;7.840;2023-12-04T10:27:54;5.10;47.80
21807;DHT22;11065;50.786;7.840;2023-12-04T10:30:23;5.10;47.80
21807;DHT22;11065;50.786;7.840;2023-12-04T10:32:54;5.20;47.80
21807;DHT22;11065;50.786;7.840;2023-12-04T10:35:23;5.20;47.70
21807;DHT22;11065;50.786;7.840;2023-12-04T10:37:55;5.30;47.70
21807;DHT22;11065;50.786;7.840;2023-12-04T10:40:24;5.30;47.70
21807;DHT22;11065;50.786;7.840;2023-12-04T10:43:15;5.40;47.80
21807;DHT22;11065;50.786;7.840;2023-12-04T10:45:45;5.40;47.70
21807;DHT22;11065;50.786;7.840;2023-12-04T10:48:15;5.50;47.70
21807;DHT22;11065;50.786;7.840;2023-12-04T10:50:45;5.50;47.70
21807;DHT22;11065;50.786;7.840;2023-12-04T10:53:16;5.50;47.60
21807;DHT22;11065;50.786;7.840;2023-12-04T10:55:44;5.50;47.60
21807;DHT22;11065;50.786;7.840;2023-12-04T10:58:14;5.60;47.70
21807;DHT22;11065;50.786;7.840;2023-12-04T11:00:44;5.70;47.70
21807;DHT22;11065;50.786;7.840;2023-12-04T11:03:15;5.70;47.70
21807;DHT22;11065;50.786;7.840;2023-12-04T11:05:44;5.80;47.70
21807;DHT22;11065;50.786;7.840;2023-12-04T11:12:14;5.90;47.50
21807;DHT22;11065;50.786;7.840;2023-12-04T11:14:49;5.90;47.60
21807;DHT22;11065;50.786;7.840;2023-12-04T11:17:20;5.90;47.60
21807;DHT22;11065;50.786;7.840;2023-12-04T11:19:54;5.90;48.00
21807;DHT22;11065;50.786;7.840;2023-12-04T11:22:24;6.00;48.00
21807;DHT22;11065;50.786;7.840;2023-12-04T11:24:53;6.10;48.00
21807;DHT22;11065;50.786;7.840;2023-12-04T11:27:24;6.20;48.10
21807;DHT22;11065;50.786;7.840;2023-12-04T11:29:52;6.30;48.10
21807;DHT22;11065;50.786;7.840;2023-12-04T11:32:24;6.40;48.20
21807;DHT22;11065;50.786;7.840;2023-12-04T11:34:54;6.50;48.20
21807;DHT22;11065;50.786;7.840;2023-12-04T11:37:23;6.60;48.10
21807;DHT22;11065;50.786;7.840;2023-12-04T11:39:52;6.60;48.00
21807;DHT22;11065;50.786;7.840;2023-12-04T11:42:23;6.70;47.90
21807;DHT22;11065;50.786;7.840;2023-12-04T11:44:57;6.80;47.90
21807;DHT22;11065;50.786;7.840;2023-12-04T11:47:28;6.80;47.80
21807;DHT22;11065;50.786;7.840;2023-12-04T11:49:57;6.90;47.80
21807;DHT22;11065;50.786;7.840;2023-12-04T11:52:37;6.90;47.80
21807;DHT22;11065;50.786;7.840;2023-12-04T11:55:06;6.90;47.80
21807;DHT22;11065;50.786;7.840;2023-12-04T11:57:37;6.90;47.80
21807;DHT22;11065;50.786;7.840;2023-12-04T12:00:13;6.90;47.70
21807;DHT22;11065;50.786;7.840;2023-12-04T12:02:47;6.90;47.70
21807;DHT22;11065;50.786;7.840;2023-12-04T12:05:36;6.80;47.60
21807;DHT22;11065;50.786;7.840;2023-12-04T12:08:07;6.80;47.70
21807;DHT22;11065;50.786;7.840;2023-12-04T12:10:37;6.70;47.70
21807;DHT22;11065;50.786;7.840;2023-12-04T12:13:07;6.70;47.80
21807;DHT22;11065;50.786;7.840;2023-12-04T12:15:35;6.60;47.90
21807;DHT22;11065;50.786;7.840;2023-12-04T12:18:06;6.60;47.90
21807;DHT22;11065;50.786;7.840;2023-12-04T12:20:36;6.60;48.00
21807;DHT22;11065;50.786;7.840;2023-12-04T12:23:04;6.50;48.00
21807;DHT22;11065;50.786;7.840;2023-12-04T12:25:32;6.50;47.90
21807;DHT22;11065;50.786;7.840;2023-12-04T12:28:03;6.50;48.00
21807;DHT22;11065;50.786;7.840;2023-12-04T12:30:33;6.40;48.00
21807;DHT22;11065;50.786;7.840;2023-12-04T12:33:02;6.40;48.00
21807;DHT22;11065;50.786;7.840;2023-12-04T12:35:31;6.40;48.00
21807;DHT22;11065;50.786;7.840;2023-12-04T12:37:59;6.40;48.10
21807;DHT22;11065;50.786;7.840;2023-12-04T12:40:28;6.40;48.20
21807;DHT22;11065;50.786;7.840;2023-12-04T12:43:04;6.40;48.20
21807;DHT22;11065;50.786;7.840;2023-12-04T12:45:42;6.30;48.20
21807;DHT22;11065;50.786;7.840;2023-12-04T12:48:12;6.30;48.20
21807;DHT22;11065;50.786;7.840;2023-12-04T12:50:41;6.30;48.20
21807;DHT22;11065;50.786;7.840;2023-12-04T12:53:10;6.20;48.20
21807;DHT22;11065;50.786;7.840;2023-12-04T12:55:40;6.20;48.30
21807;DHT22;11065;50.786;7.840;2023-12-04T12:58:09;6.20;48.30
21807;DHT22;11065;50.786;7.840;2023-12-04T13:00:39;6.20;48.30
21807;DHT22;11065;50.786;7.840;2023-12-04T13:03:14;6.20;48.40
21807;DHT22;11065;50.786;7.840;2023-12-04T13:05:43;6.10;48.40
21807;DHT22;11065;50.786;7.840;2023-12-04T13:08:11;6.10;48.40
21807;DHT22;11065;50.786;7.840;2023-12-04T13:10:41;6.10;48.40
21807;DHT22;11065;50.786;7.840;2023-12-04T13:13:09;6.00;48.40
21807;DHT22;11065;50.786;7.840;2023-12-04T13:15:38;6.00;48.50
21807;DHT22;11065;50.786;7.840;2023-12-04T13:18:08;6.00;48.50
21807;DHT22;11065;50.786;7.840;2023-12-04T13:20:37;5.90;48.60
21807;DHT22;11065;50.786;7.840;2023-12-04T13:23:05;5.90;48.50
21807;DHT22;11065;50.786;7.840;2023-12-04T13:25:33;5.90;48.60
21807;DHT22;11065;50.786;7.840;2023-12-04T13:28:01;5.90;48.60
21807;DHT22;11065;50.786;7.840;2023-12-04T13:30:29;5.80;48.60
21807;DHT22;11065;50.786;7.840;2023-12-04T13:32:57;5.80;48.60
21807;DHT22;11065;50.786;7.840;2023-12-04T13:35:25;5.80;48.60
21807;DHT22;11065;50.786;7.840;2023-12-04T13:37:54;5.80;48.60
21807;DHT22;11065;50.786;7.840;2023-12-04T13:40:23;5.80;48.70
21807;DHT22;11065;50.786;7.840;2023-12-04T13:42:54;5.70;48.70
21807;DHT22;11065;50.786;7.840;2023-12-04T13:45:40;5.70;48.70
21807;DHT22;11065;50.786;7.840;2023-12-04T13:48:08;5.70;48.70
21807;DHT22;11065;50.786;7.840;2023-12-04T13:50:37;5.70;48.70
21807;DHT22;11065;50.786;7.840;2023-12-04T13:53:06;5.70;48.70
21807;DHT22;11065;50.786;7.840;2023-12-04T13:55:34;5.60;48.70
21807;DHT22;11065;50.786;7.840;2023-12-04T13:58:17;5.60;48.70
21807;DHT22;11065;50.786;7.840;2023-12-04T14:01:03;5.60;48.80
21807;DHT22;11065;50.786;7.840;2023-12-04T14:03:40;5.50;48.70
21807;DHT22;11065;50.786;7.840;2023-12-04T14:06:09;5.50;48.70
21807;DHT22;11065;50.786;7.840;2023-12-04T14:08:39;5.50;48.80
21807;DHT22;11065;50.786;7.840;2023-12-04T14:11:07;5.50;48.80
21807;DHT22;11065;50.786;7.840;2023-12-04T14:13:36;5.50;48.80
21807;DHT22;11065;50.786;7.840;2023-12-04T14:16:06;5.40;48.80
21807;DHT22;11065;50.786;7.840;2023-12-04T14:18:34;5.40;48.80
21807;DHT22;11065;50.786;7.840;2023-12-04T14:21:02;5.40;48.80
21807;DHT22;11065;50.786;7.840;2023-12-04T14:23:30;5.40;48.70
21807;DHT22;11065;50.786;7.840;2023-12-04T14:26:00;5.40;48.80
21807;DHT22;11065;50.786;7.840;2023-12-04T14:28:28;5.30;48.70
21807;DHT22;11065;50.786;7.840;2023-12-04T14:31:07;5.30;48.70
21807;DHT22;11065;50.786;7.840;2023-12-04T14:33:35;5.30;48.80
21807;DHT22;11065;50.786;7.840;2023-12-04T14:36:09;5.20;48.80
21807;DHT22;11065;50.786;7.840;2023-12-04T14:38:38;5.20;48.90
21807;DHT22;11065;50.786;7.840;2023-12-04T14:41:08;5.20;48.80
21807;DHT22;11065;50.786;7.840;2023-12-04T14:43:37;5.10;48.80
21807;DHT22;11065;50.786;7.840;2023-12-04T14:46:06;5.10;48.90
21807;DHT22;11065;50.786;7.840;2023-12-04T14:48:40;5.10;49.00
21807;DHT22;11065;50.786;7.840;2023-12-04T14:51:08;5.00;48.80
21807;DHT22;11065;50.786;7.840;2023-12-04T14:53:37;5.00;48.80
21807;DHT22;11065;50.786;7.840;2023-12-04T14:56:17;5.00;48.90
21807;DHT22;11065;50.786;7.840;2023-12-04T14:58:54;4.90;48.90
21807;DHT22;11065;50.786;7.840;2023-12-04T15:01:42;4.90;48.90
21807;DHT22;11065;50.786;7.840;2023-12-04T15:04:30;4.90;49.00
21807;DHT22;11065;50.786;7.840;2023-12-04T15:07:14;4.90;49.10
21807;DHT22;11065;50.786;7.840;2023-12-04T15:10:15;4.90;49.10
21807;DHT22;11065;50.786;7.840;2023-12-04T15:13:10;4.90;49.10
21807;DHT22;11065;50.786;7.840;2023-12-04T15:16:05;4.90;49.20
21807;DHT22;11065;50.786;7.840;2023-12-04T15:18:52;4.90;49.10
21807;DHT22;11065;50.786;7.840;2023-12-04T15:21:55;4.90;49.20
21807;DHT22;11065;50.786;7.840;2023-12-04T15:24:22;4.90;49.20
21807;DHT22;11065;50.786;7.840;2023-12-04T15:26:50;4.90;49.20
21807;DHT22;11065;50.786;7.840;2023-12-04T15:29:19;4.90;49.20
21807;DHT22;11065;50.786;7.840;2023-12-04T15:31:48;4.90;49.20
21807;DHT22;11065;50.786;7.840;2023-12-04T15:34:15;4.90;49.20
21807;DHT22;11065;50.786;7.840;2023-12-04T15:36:45;4.90;49.20
21807;DHT22;11065;50.786;7.840;2023-12-04T15:39:13;4.90;49.30
21807;DHT22;11065;50.786;7.840;2023-12-04T15:41:45;4.90;49.20
21807;DHT22;11065;50.786;7.840;2023-12-04T15:44:12;4.90;49.30
21807;DHT22;11065;50.786;7.840;2023-12-04T15:46:41;4.90;49.30
21807;DHT22;11065;50.786;7.840;2023-12-04T15:49:09;4.90;49.30
21807;DHT22;11065;50.786;7.840;2023-12-04T15:51:38;4.90;49.30
21807;DHT22;11065;50.786;7.840;2023-12-04T15:54:05;4.80;49.30
21807;DHT22;11065;50.786;7.840;2023-12-04T15:56:33;4.80;49.30
21807;DHT22;11065;50.786;7.840;2023-12-04T15:59:00;4.90;49.40
21807;DHT22;11065;50.786;7.840;2023-12-04T16:01:28;4.90;49.50
21807;DHT22;11065;50.786;7.840;2023-12-04T16:03:57;4.90;49.60